Terminal Aerodrome Forecast
Issued by NWS

Home | Current Version | Previous Version | Text Only | Print | Product List | Glossary Off
Versions: 1 2 3 4 5 6 7 8 9 10 11 12 13 14 15

867
FTUS43 KBIS 231120
TAFDIK
TAF
KDIK 231120Z 2312/2412 16005KT P6SM SKC
     FM240000 13009KT P6SM FEW120 FEW250
     FM240600 16015KT P6SM FEW110 SCT200=

USA.gov is the U.S. government's official web portal to all federal, state and local government web resources and services.